createdAt,value
2023-03-17T00:02:41.609Z,-1.83
2023-03-17T00:06:43.561Z,-1.84
2023-03-17T00:10:41.676Z,-1.88
2023-03-17T00:14:39.518Z,-1.90
2023-03-17T00:18:38.711Z,-1.93
2023-03-17T00:22:36.487Z,-1.96
2023-03-17T00:26:34.571Z,-2.00
2023-03-17T00:30:32.855Z,-2.03
2023-03-17T00:34:33.567Z,-2.06
2023-03-17T00:38:33.513Z,-2.08
2023-03-17T00:42:31.676Z,-2.10
2023-03-17T00:46:33.654Z,-2.12
2023-03-17T00:50:37.556Z,-2.15
2023-03-17T00:54:35.525Z,-2.19
2023-03-17T00:58:46.503Z,-2.24
2023-03-17T01:02:45.441Z,-2.24
2023-03-17T01:06:43.538Z,-2.09
2023-03-17T01:10:43.528Z,-2.04
2023-03-17T01:14:43.484Z,-1.99
2023-03-17T01:18:41.494Z,-1.98
2023-03-17T01:22:39.498Z,-2.03
2023-03-17T01:26:37.431Z,-2.07
2023-03-17T01:30:35.572Z,-2.10
2023-03-17T01:34:35.397Z,-2.04
2023-03-17T01:38:33.404Z,-2.00
2023-03-17T01:42:31.437Z,-2.05
2023-03-17T01:46:44.492Z,-2.15
2023-03-17T01:50:42.575Z,-2.23
2023-03-17T01:54:48.417Z,-2.31
2023-03-17T01:58:47.352Z,-2.37
2023-03-17T02:02:49.526Z,-2.40
2023-03-17T02:06:57.457Z,-2.23
2023-03-17T02:10:57.372Z,-2.04
2023-03-17T02:14:55.413Z,-1.97
2023-03-17T02:18:54.379Z,-1.91
2023-03-17T02:22:53.484Z,-1.85
2023-03-17T02:26:52.377Z,-1.83
2023-03-17T02:30:51.478Z,-1.89
2023-03-17T02:34:49.335Z,-1.88
2023-03-17T02:38:47.298Z,-1.89
2023-03-17T02:42:46.325Z,-1.93
2023-03-17T02:46:44.297Z,-1.99
2023-03-17T02:50:43.390Z,-1.99
2023-03-17T02:54:41.393Z,-2.01
2023-03-17T02:58:39.339Z,-2.02
2023-03-17T03:02:37.356Z,-2.02
2023-03-17T03:06:35.293Z,-2.03
2023-03-17T03:10:33.261Z,-2.02
2023-03-17T03:14:31.367Z,-2.02
2023-03-17T03:18:22.464Z,-1.99
2023-03-17T03:22:20.367Z,-1.96
2023-03-17T03:26:18.261Z,-1.98
2023-03-17T03:30:16.306Z,-1.98
2023-03-17T03:34:14.277Z,-1.97
2023-03-17T03:38:12.311Z,-1.97
2023-03-17T03:42:10.333Z,-1.98
2023-03-17T03:46:08.443Z,-2.00
2023-03-17T03:50:06.294Z,-2.01
2023-03-17T03:54:04.399Z,-2.04
2023-03-17T03:58:02.250Z,-2.09
2023-03-17T04:02:00.330Z,-2.11
2023-03-17T04:05:58.180Z,-2.13
2023-03-17T04:09:56.285Z,-2.14
2023-03-17T04:13:55.283Z,-2.14
2023-03-17T04:17:55.330Z,-2.16
2023-03-17T04:21:47.460Z,-2.19
2023-03-17T04:25:45.237Z,-2.20
2023-03-17T04:29:43.153Z,-2.19
2023-03-17T04:33:41.285Z,-2.18
2023-03-17T04:37:39.163Z,-2.17
2023-03-17T04:41:37.146Z,-2.16
2023-03-17T04:45:35.175Z,-2.10
2023-03-17T04:49:33.201Z,-2.03
2023-03-17T04:53:31.182Z,-1.93
2023-03-17T04:57:29.273Z,-1.82
2023-03-17T05:01:27.174Z,-1.72
2023-03-17T05:05:26.146Z,-1.56
2023-03-17T05:09:25.144Z,-1.39
2023-03-17T05:13:23.149Z,-1.21
2023-03-17T05:17:21.104Z,-1.03
2023-03-17T05:21:21.089Z,-0.88
2023-03-17T05:25:19.082Z,-0.67
2023-03-17T05:29:17.191Z,-0.44
2023-03-17T05:33:15.074Z,-0.26
2023-03-17T05:37:14.301Z,-0.11
2023-03-17T05:41:15.033Z,0.10
2023-03-17T05:45:13.278Z,0.36
2023-03-17T05:49:11.176Z,0.53
2023-03-17T05:53:09.203Z,0.74
2023-03-17T05:57:07.049Z,0.97
2023-03-17T06:01:05.123Z,1.26
2023-03-17T06:05:03.202Z,1.63
2023-03-17T06:09:01.056Z,1.89
2023-03-17T06:12:59.064Z,2.10
2023-03-17T06:16:57.039Z,2.33
2023-03-17T06:20:55.010Z,2.49
2023-03-17T06:24:53.469Z,2.73
2023-03-17T06:28:52.000Z,3.00
2023-03-17T06:32:54.004Z,3.27
2023-03-17T06:36:52.050Z,3.51
2023-03-17T06:40:49.991Z,3.77
2023-03-17T06:44:47.925Z,4.03
2023-03-17T06:48:47.953Z,4.27
2023-03-17T06:52:47.934Z,4.51
2023-03-17T06:56:45.943Z,4.71
2023-03-17T07:00:23.996Z,4.92
2023-03-17T07:03:48.232Z,5.06
2023-03-17T07:07:12.217Z,5.21
2023-03-17T07:10:37.409Z,5.37
2023-03-17T07:14:01.512Z,5.52
2023-03-17T07:17:25.627Z,5.67
2023-03-17T07:20:49.602Z,5.83
2023-03-17T07:24:13.457Z,5.97
2023-03-17T07:27:37.922Z,6.13
2023-03-17T07:31:03.023Z,6.09
2023-03-17T07:34:27.594Z,5.98
2023-03-17T07:37:51.646Z,5.95
2023-03-17T07:41:15.618Z,5.95
2023-03-17T07:44:41.641Z,5.96
2023-03-17T07:48:07.463Z,5.97
2023-03-17T07:51:31.450Z,5.97
2023-03-17T07:54:56.052Z,5.96
2023-03-17T07:58:20.329Z,5.97
2023-03-17T08:01:45.103Z,6.01
2023-03-17T08:05:10.651Z,6.06
2023-03-17T08:08:34.480Z,6.14
2023-03-17T08:11:58.323Z,6.27
2023-03-17T08:15:22.747Z,6.36
2023-03-17T08:18:48.020Z,6.43
2023-03-17T08:22:13.437Z,6.56
2023-03-17T08:25:37.463Z,6.71
2023-03-17T08:29:01.444Z,6.86
2023-03-17T08:32:25.389Z,7.01
2023-03-17T08:35:49.788Z,7.16
2023-03-17T08:39:14.083Z,7.28
2023-03-17T08:42:39.475Z,7.42
2023-03-17T08:46:09.932Z,7.58
2023-03-17T08:49:36.203Z,7.74
2023-03-17T08:53:00.127Z,7.93
2023-03-17T08:56:24.212Z,8.10
2023-03-17T08:59:48.720Z,8.30
2023-03-17T09:03:12.526Z,8.51
2023-03-17T09:06:36.564Z,8.70
2023-03-17T09:10:05.187Z,8.87
2023-03-17T09:13:29.431Z,9.08
2023-03-17T09:16:53.810Z,9.29
2023-03-17T09:20:17.985Z,9.50
2023-03-17T09:23:42.260Z,9.57
2023-03-17T09:27:06.487Z,9.61
2023-03-17T09:30:30.889Z,9.65
2023-03-17T09:33:54.883Z,9.70
2023-03-17T09:37:18.780Z,9.77
2023-03-17T09:40:54.172Z,9.78
2023-03-17T09:44:56.567Z,9.84
2023-03-17T09:49:00.956Z,9.99
2023-03-17T09:52:30.379Z,10.11
2023-03-17T09:55:59.914Z,10.26
2023-03-17T09:59:53.873Z,10.40
2023-03-17T10:03:17.741Z,10.50
2023-03-17T10:06:46.939Z,10.50
2023-03-17T10:10:51.438Z,10.53
2023-03-17T10:14:46.237Z,10.60
2023-03-17T10:18:16.173Z,10.60
2023-03-17T10:22:05.168Z,10.49
2023-03-17T10:25:33.063Z,10.32
2023-03-17T10:28:57.505Z,10.21
2023-03-17T10:32:21.724Z,10.09
2023-03-17T10:35:45.810Z,10.03
2023-03-17T10:39:14.626Z,9.98
2023-03-17T10:42:56.462Z,9.98
2023-03-17T10:46:30.031Z,9.88
2023-03-17T10:49:53.967Z,9.79
2023-03-17T10:53:28.518Z,9.71
2023-03-17T10:57:02.572Z,9.70
2023-03-17T11:00:30.568Z,9.72
2023-03-17T11:03:56.387Z,9.83
2023-03-17T11:07:31.551Z,9.93
2023-03-17T11:10:57.728Z,10.05
2023-03-17T11:14:28.411Z,10.17
2023-03-17T11:18:17.139Z,10.24
2023-03-17T11:22:05.146Z,10.30
2023-03-17T11:25:30.302Z,10.33
2023-03-17T11:29:22.505Z,10.28
2023-03-17T11:33:08.110Z,10.28
2023-03-17T11:37:07.266Z,10.34
2023-03-17T11:41:09.141Z,10.34
2023-03-17T11:44:51.962Z,10.39
2023-03-17T11:48:44.779Z,10.55
2023-03-17T11:52:22.131Z,10.68
2023-03-17T11:55:58.833Z,10.75
2023-03-17T12:00:04.538Z,10.81
2023-03-17T12:03:55.401Z,10.88
2023-03-17T12:07:24.834Z,10.91
2023-03-17T12:10:55.638Z,10.94
2023-03-17T12:14:34.969Z,11.03
2023-03-17T12:18:07.050Z,11.16
2023-03-17T12:21:45.732Z,11.28
2023-03-17T12:25:35.173Z,11.33
2023-03-17T12:29:01.519Z,11.35
2023-03-17T12:32:50.958Z,11.40
2023-03-17T12:36:17.251Z,11.42
2023-03-17T12:39:50.299Z,11.41
2023-03-17T12:43:37.123Z,11.26
2023-03-17T12:47:26.681Z,11.07
2023-03-17T12:51:12.573Z,11.11
2023-03-17T12:54:39.516Z,11.16
2023-03-17T12:58:07.797Z,11.05
2023-03-17T13:01:46.488Z,10.73
2023-03-17T13:05:16.115Z,10.58
2023-03-17T13:08:43.775Z,10.66
2023-03-17T13:12:08.866Z,10.71
2023-03-17T13:15:36.222Z,10.73
2023-03-17T13:19:19.367Z,10.90
2023-03-17T13:23:03.465Z,10.85
2023-03-17T13:27:01.858Z,10.91
2023-03-17T13:30:26.327Z,11.02
2023-03-17T13:33:54.084Z,11.24
2023-03-17T13:37:41.747Z,11.36
2023-03-17T13:41:27.456Z,11.43
2023-03-17T13:45:29.427Z,11.45
2023-03-17T13:48:56.359Z,11.44
2023-03-17T13:52:50.768Z,11.52
2023-03-17T13:56:19.957Z,11.59
2023-03-17T13:59:58.787Z,11.59
2023-03-17T14:03:37.658Z,11.53
2023-03-17T14:07:10.835Z,11.46
2023-03-17T14:10:36.398Z,11.47
2023-03-17T14:14:39.165Z,11.48
2023-03-17T14:18:16.139Z,11.58
2023-03-17T14:21:40.845Z,11.54
2023-03-17T14:25:09.629Z,11.47
2023-03-17T14:28:38.619Z,11.37
2023-03-17T14:32:27.513Z,11.24
2023-03-17T14:36:27.356Z,11.09
2023-03-17T14:40:39.423Z,10.95
2023-03-17T14:44:37.393Z,10.84
2023-03-17T14:48:42.421Z,10.74
2023-03-17T14:52:43.382Z,10.59
2023-03-17T14:56:53.383Z,10.54
2023-03-17T15:00:57.387Z,10.72
2023-03-17T15:05:08.349Z,10.81
2023-03-17T15:09:07.355Z,10.70
2023-03-17T15:13:15.571Z,10.58
2023-03-17T15:17:16.337Z,10.51
2023-03-17T15:21:14.334Z,10.39
2023-03-17T15:25:17.345Z,10.23
2023-03-17T15:29:15.374Z,10.15
2023-03-17T15:33:16.314Z,10.07
2023-03-17T15:37:14.398Z,9.92
2023-03-17T15:41:12.381Z,9.80
2023-03-17T15:45:10.461Z,9.69
2023-03-17T15:49:08.338Z,9.57
2023-03-17T15:53:06.324Z,9.40
2023-03-17T15:57:04.285Z,9.25
2023-03-17T16:01:07.356Z,9.07
2023-03-17T16:05:05.265Z,8.82
2023-03-17T16:09:04.335Z,8.57
2023-03-17T16:13:03.291Z,8.37
2023-03-17T16:17:02.372Z,8.15
2023-03-17T16:21:05.244Z,7.96
2023-03-17T16:25:03.347Z,7.78
2023-03-17T16:29:01.353Z,7.60
2023-03-17T16:33:00.489Z,7.44
2023-03-17T16:36:58.208Z,7.29
2023-03-17T16:40:57.318Z,7.16
2023-03-17T16:44:57.343Z,7.05
2023-03-17T16:48:56.351Z,6.92
2023-03-17T16:52:55.256Z,6.82
2023-03-17T16:56:55.333Z,6.72
2023-03-17T17:00:53.449Z,6.64
2023-03-17T17:04:51.248Z,6.55
2023-03-17T17:08:49.197Z,6.46
2023-03-17T17:12:47.210Z,6.38
2023-03-17T17:16:50.307Z,6.29
2023-03-17T17:20:52.277Z,6.18
2023-03-17T17:24:50.350Z,6.10
2023-03-17T17:28:49.250Z,6.03
2023-03-17T17:32:48.263Z,5.97
2023-03-17T17:36:46.328Z,5.90
2023-03-17T17:40:44.161Z,5.84
2023-03-17T17:44:42.181Z,5.78
2023-03-17T17:48:41.174Z,5.72
2023-03-17T17:52:39.268Z,5.68
2023-03-17T17:56:37.249Z,5.62
2023-03-17T18:00:35.185Z,5.58
2023-03-17T18:04:33.307Z,5.52
2023-03-17T18:08:31.605Z,5.47
2023-03-17T18:12:29.103Z,5.42
2023-03-17T18:16:31.356Z,5.34
2023-03-17T18:20:31.448Z,5.29
2023-03-17T18:24:31.115Z,5.23
2023-03-17T18:28:29.264Z,5.16
2023-03-17T18:32:30.540Z,5.10
2023-03-17T18:36:28.191Z,5.05
2023-03-17T18:40:26.287Z,4.99
2023-03-17T18:44:25.179Z,4.94
2023-03-17T18:48:23.067Z,4.87
2023-03-17T18:52:22.093Z,4.81
2023-03-17T18:56:20.113Z,4.77
2023-03-17T19:00:19.141Z,4.73
2023-03-17T19:04:17.083Z,4.69
2023-03-17T19:08:18.020Z,4.66
2023-03-17T19:12:16.027Z,4.61
2023-03-17T19:16:13.985Z,4.59
2023-03-17T19:20:12.086Z,4.56
2023-03-17T19:24:15.015Z,4.52
2023-03-17T19:28:13.172Z,4.47
2023-03-17T19:32:13.011Z,4.43
2023-03-17T19:36:12.120Z,4.39
2023-03-17T19:40:09.992Z,4.32
2023-03-17T19:44:08.422Z,4.30
2023-03-17T19:48:05.963Z,4.25
2023-03-17T19:52:04.998Z,4.22
2023-03-17T19:56:03.024Z,4.18
2023-03-17T20:00:02.005Z,4.11
2023-03-17T20:04:01.085Z,4.05
2023-03-17T20:07:58.974Z,4.00
2023-03-17T20:11:58.012Z,3.94
2023-03-17T20:15:56.932Z,3.88
2023-03-17T20:19:54.918Z,3.84
2023-03-17T20:23:53.019Z,3.80
2023-03-17T20:27:58.940Z,3.74
2023-03-17T20:31:57.996Z,3.72
2023-03-17T20:36:00.969Z,3.67
2023-03-17T20:40:00.931Z,3.58
2023-03-17T20:43:59.925Z,3.50
2023-03-17T20:47:58.280Z,3.42
2023-03-17T20:51:56.955Z,3.36
2023-03-17T20:55:56.977Z,3.32
2023-03-17T20:59:57.901Z,3.28
2023-03-17T21:03:58.979Z,3.23
2023-03-17T21:07:59.933Z,3.20
2023-03-17T21:11:57.998Z,3.17
2023-03-17T21:16:01.964Z,3.13
2023-03-17T21:20:02.904Z,3.11
2023-03-17T21:24:03.775Z,3.06
2023-03-17T21:28:01.918Z,3.03
2023-03-17T21:32:04.892Z,3.00
2023-03-17T21:36:08.265Z,2.97
2023-03-17T21:40:06.847Z,2.92
2023-03-17T21:44:04.983Z,2.88
2023-03-17T21:48:02.803Z,2.84
2023-03-17T21:52:07.907Z,2.81
2023-03-17T21:56:07.791Z,2.76
2023-03-17T22:00:05.836Z,2.73
2023-03-17T22:04:04.806Z,2.71
2023-03-17T22:08:03.001Z,2.66
2023-03-17T22:12:00.880Z,2.63
2023-03-17T22:17:05.813Z,2.61
2023-03-17T22:21:07.771Z,2.59
2023-03-17T22:25:06.840Z,2.57
2023-03-17T22:29:06.804Z,2.53
2023-03-17T22:33:04.879Z,2.50
2023-03-17T22:37:02.785Z,2.47
2023-03-17T22:41:00.859Z,2.43
2023-03-17T22:45:01.204Z,2.38
2023-03-17T22:48:59.900Z,2.37
2023-03-17T22:52:57.771Z,2.38
2023-03-17T22:56:55.789Z,2.38
2023-03-17T23:00:54.805Z,2.37
2023-03-17T23:04:52.744Z,2.35
2023-03-17T23:08:52.794Z,2.30
2023-03-17T23:12:50.845Z,2.27
2023-03-17T23:16:48.799Z,2.23
2023-03-17T23:20:47.811Z,2.22
2023-03-17T23:24:45.805Z,2.19
2023-03-17T23:28:43.760Z,2.16
2023-03-17T23:32:42.869Z,2.16
2023-03-17T23:36:40.735Z,2.14
2023-03-17T23:40:39.771Z,2.09
2023-03-17T23:44:37.743Z,2.04
2023-03-17T23:48:35.711Z,2.00
2023-03-17T23:52:34.735Z,1.94
2023-03-17T23:56:32.690Z,1.92
